sensor_id;sensor_type;location;lat;lon;timestamp;P1;durP1;ratioP1;P2;durP2;ratioP2
48042;SDS011;33988;47.992;8.820;2023-07-16T00:02:12;5.15;;;2.00;;
48042;SDS011;33988;47.992;8.820;2023-07-16T00:04:39;4.53;;;2.00;;
48042;SDS011;33988;47.992;8.820;2023-07-16T00:07:06;2.35;;;1.90;;
48042;SDS011;33988;47.992;8.820;2023-07-16T00:09:33;2.42;;;1.52;;
48042;SDS011;33988;47.992;8.820;2023-07-16T00:12:00;2.80;;;1.83;;
48042;SDS011;33988;47.992;8.820;2023-07-16T00:14:27;2.35;;;1.73;;
48042;SDS011;33988;47.992;8.820;2023-07-16T00:16:53;1.67;;;1.50;;
48042;SDS011;33988;47.992;8.820;2023-07-16T00:19:21;1.30;;;1.20;;
48042;SDS011;33988;47.992;8.820;2023-07-16T00:21:50;2.75;;;1.02;;
48042;SDS011;33988;47.992;8.820;2023-07-16T00:24:19;1.20;;;1.02;;
48042;SDS011;33988;47.992;8.820;2023-07-16T00:26:46;2.85;;;0.77;;
48042;SDS011;33988;47.992;8.820;2023-07-16T00:29:18;2.58;;;0.90;;
48042;SDS011;33988;47.992;8.820;2023-07-16T00:31:49;0.75;;;0.75;;
48042;SDS011;33988;47.992;8.820;2023-07-16T00:34:19;0.68;;;0.68;;
48042;SDS011;33988;47.992;8.820;2023-07-16T00:36:45;0.55;;;0.50;;
48042;SDS011;33988;47.992;8.820;2023-07-16T00:39:15;1.70;;;0.60;;
48042;SDS011;33988;47.992;8.820;2023-07-16T00:41:42;0.80;;;0.75;;
48042;SDS011;33988;47.992;8.820;2023-07-16T00:44:09;0.70;;;0.70;;
48042;SDS011;33988;47.992;8.820;2023-07-16T00:46:38;0.60;;;0.60;;
48042;SDS011;33988;47.992;8.820;2023-07-16T00:49:08;4.88;;;0.90;;
48042;SDS011;33988;47.992;8.820;2023-07-16T00:51:35;0.50;;;0.50;;
48042;SDS011;33988;47.992;8.820;2023-07-16T00:54:02;0.85;;;0.65;;
48042;SDS011;33988;47.992;8.820;2023-07-16T00:56:32;0.60;;;0.50;;
48042;SDS011;33988;47.992;8.820;2023-07-16T00:59:01;1.55;;;0.80;;
48042;SDS011;33988;47.992;8.820;2023-07-16T01:01:31;2.58;;;0.60;;
48042;SDS011;33988;47.992;8.820;2023-07-16T01:04:00;0.50;;;0.50;;
48042;SDS011;33988;47.992;8.820;2023-07-16T01:06:35;1.73;;;0.70;;
48042;SDS011;33988;47.992;8.820;2023-07-16T01:09:11;0.75;;;0.60;;
48042;SDS011;33988;47.992;8.820;2023-07-16T01:11:49;0.80;;;0.77;;
48042;SDS011;33988;47.992;8.820;2023-07-16T01:14:19;0.80;;;0.60;;
48042;SDS011;33988;47.992;8.820;2023-07-16T01:16:49;0.73;;;0.63;;
48042;SDS011;33988;47.992;8.820;2023-07-16T01:19:17;1.35;;;0.70;;
48042;SDS011;33988;47.992;8.820;2023-07-16T01:30:37;1.60;;;0.50;;
48042;SDS011;33988;47.992;8.820;2023-07-16T01:33:07;0.40;;;0.40;;
48042;SDS011;33988;47.992;8.820;2023-07-16T01:35:36;0.90;;;0.50;;
48042;SDS011;33988;47.992;8.820;2023-07-16T01:38:08;0.85;;;0.60;;
48042;SDS011;33988;47.992;8.820;2023-07-16T01:40:36;0.80;;;0.60;;
48042;SDS011;33988;47.992;8.820;2023-07-16T01:43:03;0.57;;;0.52;;
48042;SDS011;33988;47.992;8.820;2023-07-16T01:45:30;0.73;;;0.70;;
48042;SDS011;33988;47.992;8.820;2023-07-16T01:50:46;1.42;;;0.65;;
48042;SDS011;33988;47.992;8.820;2023-07-16T01:53:16;2.22;;;1.00;;
48042;SDS011;33988;47.992;8.820;2023-07-16T01:55:43;1.77;;;0.80;;
48042;SDS011;33988;47.992;8.820;2023-07-16T01:58:10;0.90;;;0.85;;
48042;SDS011;33988;47.992;8.820;2023-07-16T02:00:38;0.90;;;0.90;;
48042;SDS011;33988;47.992;8.820;2023-07-16T02:03:09;0.82;;;0.70;;
48042;SDS011;33988;47.992;8.820;2023-07-16T02:05:41;0.75;;;0.75;;
48042;SDS011;33988;47.992;8.820;2023-07-16T02:08:08;0.60;;;0.60;;
48042;SDS011;33988;47.992;8.820;2023-07-16T02:10:35;0.82;;;0.82;;
48042;SDS011;33988;47.992;8.820;2023-07-16T02:13:02;0.60;;;0.60;;
48042;SDS011;33988;47.992;8.820;2023-07-16T02:15:29;1.05;;;0.80;;
48042;SDS011;33988;47.992;8.820;2023-07-16T02:17:56;0.63;;;0.60;;
48042;SDS011;33988;47.992;8.820;2023-07-16T02:20:23;0.80;;;0.80;;
48042;SDS011;33988;47.992;8.820;2023-07-16T02:22:53;3.55;;;0.93;;
48042;SDS011;33988;47.992;8.820;2023-07-16T02:25:22;0.60;;;0.60;;
48042;SDS011;33988;47.992;8.820;2023-07-16T02:27:49;1.13;;;0.80;;
48042;SDS011;33988;47.992;8.820;2023-07-16T02:30:18;0.80;;;0.80;;
48042;SDS011;33988;47.992;8.820;2023-07-16T02:32:45;0.85;;;0.70;;
48042;SDS011;33988;47.992;8.820;2023-07-16T02:35:14;2.35;;;0.77;;
48042;SDS011;33988;47.992;8.820;2023-07-16T02:37:43;1.27;;;1.02;;
48042;SDS011;33988;47.992;8.820;2023-07-16T02:40:10;0.70;;;0.70;;
48042;SDS011;33988;47.992;8.820;2023-07-16T02:42:37;1.02;;;0.93;;
48042;SDS011;33988;47.992;8.820;2023-07-16T02:45:05;1.75;;;0.68;;
48042;SDS011;33988;47.992;8.820;2023-07-16T02:47:32;2.17;;;0.80;;
48042;SDS011;33988;47.992;8.820;2023-07-16T02:49:59;0.55;;;0.55;;
48042;SDS011;33988;47.992;8.820;2023-07-16T02:52:29;0.65;;;0.63;;
48042;SDS011;33988;47.992;8.820;2023-07-16T02:54:58;2.13;;;0.80;;
48042;SDS011;33988;47.992;8.820;2023-07-16T02:59:54;0.93;;;0.73;;
48042;SDS011;33988;47.992;8.820;2023-07-16T03:02:21;1.00;;;0.85;;
48042;SDS011;33988;47.992;8.820;2023-07-16T03:04:51;1.13;;;0.65;;
48042;SDS011;33988;47.992;8.820;2023-07-16T03:07:18;1.17;;;0.95;;
48042;SDS011;33988;47.992;8.820;2023-07-16T03:09:45;1.42;;;0.90;;
48042;SDS011;33988;47.992;8.820;2023-07-16T03:12:12;0.70;;;0.70;;
48042;SDS011;33988;47.992;8.820;2023-07-16T03:14:39;2.40;;;0.80;;
48042;SDS011;33988;47.992;8.820;2023-07-16T03:17:06;1.00;;;0.80;;
48042;SDS011;33988;47.992;8.820;2023-07-16T03:19:33;1.30;;;0.90;;
48042;SDS011;33988;47.992;8.820;2023-07-16T03:22:04;1.45;;;0.82;;
48042;SDS011;33988;47.992;8.820;2023-07-16T03:24:34;1.48;;;0.82;;
48042;SDS011;33988;47.992;8.820;2023-07-16T03:27:03;0.98;;;0.80;;
48042;SDS011;33988;47.992;8.820;2023-07-16T03:29:44;0.70;;;0.70;;
48042;SDS011;33988;47.992;8.820;2023-07-16T03:32:13;0.85;;;0.77;;
48042;SDS011;33988;47.992;8.820;2023-07-16T03:34:40;2.00;;;1.05;;
48042;SDS011;33988;47.992;8.820;2023-07-16T03:37:09;2.25;;;0.80;;
48042;SDS011;33988;47.992;8.820;2023-07-16T03:39:36;2.22;;;0.90;;
48042;SDS011;33988;47.992;8.820;2023-07-16T03:42:05;2.10;;;0.98;;
48042;SDS011;33988;47.992;8.820;2023-07-16T03:44:32;0.90;;;0.80;;
48042;SDS011;33988;47.992;8.820;2023-07-16T03:47:00;0.73;;;0.73;;
48042;SDS011;33988;47.992;8.820;2023-07-16T03:49:29;0.68;;;0.68;;
48042;SDS011;33988;47.992;8.820;2023-07-16T03:52:01;1.48;;;0.82;;
48042;SDS011;33988;47.992;8.820;2023-07-16T03:54:28;1.42;;;0.80;;
48042;SDS011;33988;47.992;8.820;2023-07-16T03:56:59;1.17;;;1.05;;
48042;SDS011;33988;47.992;8.820;2023-07-16T03:59:29;1.02;;;0.80;;
48042;SDS011;33988;47.992;8.820;2023-07-16T04:01:55;1.70;;;0.95;;
48042;SDS011;33988;47.992;8.820;2023-07-16T04:04:25;2.83;;;0.90;;
48042;SDS011;33988;47.992;8.820;2023-07-16T04:06:52;2.85;;;1.10;;
48042;SDS011;33988;47.992;8.820;2023-07-16T04:09:19;0.73;;;0.73;;
48042;SDS011;33988;47.992;8.820;2023-07-16T04:11:48;1.13;;;0.90;;
48042;SDS011;33988;47.992;8.820;2023-07-16T04:14:15;3.00;;;1.13;;
48042;SDS011;33988;47.992;8.820;2023-07-16T04:16:43;1.55;;;0.65;;
48042;SDS011;33988;47.992;8.820;2023-07-16T04:19:12;1.83;;;1.00;;
48042;SDS011;33988;47.992;8.820;2023-07-16T04:21:40;1.40;;;0.80;;
48042;SDS011;33988;47.992;8.820;2023-07-16T04:24:10;2.03;;;1.00;;
48042;SDS011;33988;47.992;8.820;2023-07-16T04:26:37;1.27;;;0.90;;
48042;SDS011;33988;47.992;8.820;2023-07-16T04:29:08;1.90;;;1.00;;
48042;SDS011;33988;47.992;8.820;2023-07-16T04:31:35;1.08;;;0.82;;
48042;SDS011;33988;47.992;8.820;2023-07-16T04:34:02;1.10;;;1.00;;
48042;SDS011;33988;47.992;8.820;2023-07-16T04:36:29;0.90;;;0.80;;
48042;SDS011;33988;47.992;8.820;2023-07-16T04:38:58;0.82;;;0.82;;
48042;SDS011;33988;47.992;8.820;2023-07-16T04:41:25;0.90;;;0.80;;
48042;SDS011;33988;47.992;8.820;2023-07-16T04:43:55;0.70;;;0.70;;
48042;SDS011;33988;47.992;8.820;2023-07-16T04:46:22;0.82;;;0.70;;
48042;SDS011;33988;47.992;8.820;2023-07-16T04:48:49;0.98;;;0.82;;
48042;SDS011;33988;47.992;8.820;2023-07-16T04:51:16;0.80;;;0.70;;
48042;SDS011;33988;47.992;8.820;2023-07-16T04:53:43;1.20;;;0.93;;
48042;SDS011;33988;47.992;8.820;2023-07-16T04:56:13;1.17;;;1.08;;
48042;SDS011;33988;47.992;8.820;2023-07-16T04:58:44;0.80;;;0.80;;
48042;SDS011;33988;47.992;8.820;2023-07-16T05:01:11;1.20;;;0.77;;
48042;SDS011;33988;47.992;8.820;2023-07-16T05:03:38;1.17;;;0.77;;
48042;SDS011;33988;47.992;8.820;2023-07-16T05:06:05;0.80;;;0.80;;
48042;SDS011;33988;47.992;8.820;2023-07-16T05:08:32;1.63;;;0.75;;
48042;SDS011;33988;47.992;8.820;2023-07-16T05:10:58;1.00;;;0.88;;
48042;SDS011;33988;47.992;8.820;2023-07-16T05:13:28;3.22;;;0.80;;
48042;SDS011;33988;47.992;8.820;2023-07-16T05:15:55;1.10;;;1.00;;
48042;SDS011;33988;47.992;8.820;2023-07-16T05:18:26;1.35;;;0.90;;
48042;SDS011;33988;47.992;8.820;2023-07-16T05:20:54;0.80;;;0.80;;
48042;SDS011;33988;47.992;8.820;2023-07-16T05:23:21;3.97;;;0.90;;
48042;SDS011;33988;47.992;8.820;2023-07-16T05:25:49;1.00;;;0.75;;
48042;SDS011;33988;47.992;8.820;2023-07-16T05:28:19;0.90;;;0.82;;
48042;SDS011;33988;47.992;8.820;2023-07-16T05:30:56;0.95;;;0.75;;
48042;SDS011;33988;47.992;8.820;2023-07-16T05:33:28;0.93;;;0.73;;
48042;SDS011;33988;47.992;8.820;2023-07-16T05:35:57;1.40;;;0.93;;
48042;SDS011;33988;47.992;8.820;2023-07-16T05:38:24;3.17;;;0.95;;
48042;SDS011;33988;47.992;8.820;2023-07-16T05:40:53;1.83;;;0.90;;
48042;SDS011;33988;47.992;8.820;2023-07-16T05:43:27;0.90;;;0.77;;
48042;SDS011;33988;47.992;8.820;2023-07-16T05:45:54;1.08;;;0.88;;
48042;SDS011;33988;47.992;8.820;2023-07-16T05:48:21;2.03;;;1.00;;
48042;SDS011;33988;47.992;8.820;2023-07-16T05:50:48;2.53;;;0.70;;
48042;SDS011;33988;47.992;8.820;2023-07-16T05:53:15;1.05;;;0.80;;
48042;SDS011;33988;47.992;8.820;2023-07-16T05:55:45;1.55;;;0.82;;
48042;SDS011;33988;47.992;8.820;2023-07-16T05:58:12;2.67;;;0.98;;
48042;SDS011;33988;47.992;8.820;2023-07-16T06:00:39;2.90;;;0.90;;
48042;SDS011;33988;47.992;8.820;2023-07-16T06:03:06;0.80;;;0.80;;
48042;SDS011;33988;47.992;8.820;2023-07-16T06:05:34;0.85;;;0.85;;
48042;SDS011;33988;47.992;8.820;2023-07-16T06:08:03;2.65;;;1.23;;
48042;SDS011;33988;47.992;8.820;2023-07-16T06:10:30;1.25;;;0.93;;
48042;SDS011;33988;47.992;8.820;2023-07-16T06:13:03;1.50;;;0.90;;
48042;SDS011;33988;47.992;8.820;2023-07-16T06:15:30;1.15;;;0.85;;
48042;SDS011;33988;47.992;8.820;2023-07-16T06:17:56;1.63;;;1.00;;
48042;SDS011;33988;47.992;8.820;2023-07-16T06:20:23;1.23;;;0.90;;
48042;SDS011;33988;47.992;8.820;2023-07-16T06:22:53;1.85;;;0.90;;
48042;SDS011;33988;47.992;8.820;2023-07-16T06:25:20;0.80;;;0.80;;
48042;SDS011;33988;47.992;8.820;2023-07-16T06:27:50;2.78;;;0.90;;
48042;SDS011;33988;47.992;8.820;2023-07-16T06:30:17;1.58;;;0.90;;
48042;SDS011;33988;47.992;8.820;2023-07-16T06:32:46;1.38;;;0.80;;
48042;SDS011;33988;47.992;8.820;2023-07-16T06:35:14;1.15;;;0.88;;
48042;SDS011;33988;47.992;8.820;2023-07-16T06:37:41;1.23;;;0.93;;
48042;SDS011;33988;47.992;8.820;2023-07-16T06:40:08;1.55;;;1.20;;
48042;SDS011;33988;47.992;8.820;2023-07-16T06:42:37;0.80;;;0.80;;
48042;SDS011;33988;47.992;8.820;2023-07-16T06:45:07;2.00;;;1.00;;
48042;SDS011;33988;47.992;8.820;2023-07-16T06:47:35;1.38;;;1.00;;
48042;SDS011;33988;47.992;8.820;2023-07-16T06:50:04;1.50;;;0.80;;
48042;SDS011;33988;47.992;8.820;2023-07-16T06:52:34;1.77;;;1.00;;
48042;SDS011;33988;47.992;8.820;2023-07-16T06:55:04;3.05;;;1.10;;
48042;SDS011;33988;47.992;8.820;2023-07-16T06:57:31;0.90;;;0.82;;
48042;SDS011;33988;47.992;8.820;2023-07-16T07:00:03;1.83;;;1.00;;
48042;SDS011;33988;47.992;8.820;2023-07-16T07:02:36;1.13;;;1.00;;
48042;SDS011;33988;47.992;8.820;2023-07-16T07:05:08;2.00;;;1.10;;
48042;SDS011;33988;47.992;8.820;2023-07-16T07:07:35;1.55;;;0.90;;
48042;SDS011;33988;47.992;8.820;2023-07-16T07:10:05;2.35;;;0.95;;
48042;SDS011;33988;47.992;8.820;2023-07-16T07:12:34;2.25;;;0.93;;
48042;SDS011;33988;47.992;8.820;2023-07-16T07:15:05;1.77;;;1.10;;
48042;SDS011;33988;47.992;8.820;2023-07-16T07:17:35;2.63;;;1.30;;
48042;SDS011;33988;47.992;8.820;2023-07-16T07:20:03;2.47;;;1.30;;
48042;SDS011;33988;47.992;8.820;2023-07-16T07:22:33;1.08;;;0.88;;
48042;SDS011;33988;47.992;8.820;2023-07-16T07:25:03;1.38;;;0.90;;
48042;SDS011;33988;47.992;8.820;2023-07-16T07:27:33;1.95;;;0.95;;
48042;SDS011;33988;47.992;8.820;2023-07-16T07:30:05;0.90;;;0.70;;
48042;SDS011;33988;47.992;8.820;2023-07-16T07:32:36;2.42;;;1.00;;
48042;SDS011;33988;47.992;8.820;2023-07-16T07:35:06;2.25;;;0.90;;
48042;SDS011;33988;47.992;8.820;2023-07-16T07:37:36;1.00;;;0.90;;
48042;SDS011;33988;47.992;8.820;2023-07-16T07:40:03;1.40;;;0.80;;
48042;SDS011;33988;47.992;8.820;2023-07-16T07:42:31;1.20;;;1.00;;
48042;SDS011;33988;47.992;8.820;2023-07-16T07:45:01;2.35;;;1.30;;
48042;SDS011;33988;47.992;8.820;2023-07-16T07:47:28;1.77;;;0.90;;
48042;SDS011;33988;47.992;8.820;2023-07-16T07:49:55;2.42;;;1.40;;
48042;SDS011;33988;47.992;8.820;2023-07-16T07:52:22;3.25;;;1.40;;
48042;SDS011;33988;47.992;8.820;2023-07-16T07:54:49;2.42;;;1.50;;
48042;SDS011;33988;47.992;8.820;2023-07-16T07:57:16;1.52;;;1.02;;
48042;SDS011;33988;47.992;8.820;2023-07-16T07:59:44;1.73;;;1.17;;
48042;SDS011;33988;47.992;8.820;2023-07-16T08:02:13;1.10;;;0.90;;
48042;SDS011;33988;47.992;8.820;2023-07-16T08:04:40;1.50;;;1.10;;
48042;SDS011;33988;47.992;8.820;2023-07-16T08:07:10;2.13;;;1.20;;
48042;SDS011;33988;47.992;8.820;2023-07-16T08:09:37;1.75;;;1.10;;
48042;SDS011;33988;47.992;8.820;2023-07-16T08:12:07;1.80;;;1.05;;
48042;SDS011;33988;47.992;8.820;2023-07-16T08:14:34;2.30;;;1.10;;
48042;SDS011;33988;47.992;8.820;2023-07-16T08:17:06;2.08;;;1.10;;
48042;SDS011;33988;47.992;8.820;2023-07-16T08:19:33;0.98;;;0.90;;
48042;SDS011;33988;47.992;8.820;2023-07-16T08:22:03;1.67;;;1.10;;
48042;SDS011;33988;47.992;8.820;2023-07-16T08:24:33;1.55;;;1.02;;
48042;SDS011;33988;47.992;8.820;2023-07-16T08:27:00;2.47;;;1.10;;
48042;SDS011;33988;47.992;8.820;2023-07-16T08:29:29;2.20;;;1.00;;
48042;SDS011;33988;47.992;8.820;2023-07-16T08:31:56;0.98;;;0.90;;
48042;SDS011;33988;47.992;8.820;2023-07-16T08:34:23;1.10;;;0.98;;
48042;SDS011;33988;47.992;8.820;2023-07-16T08:36:50;1.88;;;1.20;;
48042;SDS011;33988;47.992;8.820;2023-07-16T08:39:17;1.73;;;0.88;;
48042;SDS011;33988;47.992;8.820;2023-07-16T08:41:47;1.95;;;1.27;;
48042;SDS011;33988;47.992;8.820;2023-07-16T08:44:14;1.50;;;1.00;;
48042;SDS011;33988;47.992;8.820;2023-07-16T08:46:41;2.20;;;0.98;;
48042;SDS011;33988;47.992;8.820;2023-07-16T08:49:11;1.55;;;1.23;;
48042;SDS011;33988;47.992;8.820;2023-07-16T08:51:38;3.33;;;1.10;;
48042;SDS011;33988;47.992;8.820;2023-07-16T08:54:09;2.67;;;1.08;;
48042;SDS011;33988;47.992;8.820;2023-07-16T08:56:37;1.98;;;1.17;;
48042;SDS011;33988;47.992;8.820;2023-07-16T08:59:04;1.58;;;1.10;;
48042;SDS011;33988;47.992;8.820;2023-07-16T09:01:31;2.45;;;1.10;;
48042;SDS011;33988;47.992;8.820;2023-07-16T09:04:00;1.92;;;1.20;;
48042;SDS011;33988;47.992;8.820;2023-07-16T09:06:27;1.77;;;1.20;;
48042;SDS011;33988;47.992;8.820;2023-07-16T09:08:57;1.92;;;1.20;;
48042;SDS011;33988;47.992;8.820;2023-07-16T09:11:24;1.20;;;1.00;;
48042;SDS011;33988;47.992;8.820;2023-07-16T09:13:53;2.15;;;0.90;;
48042;SDS011;33988;47.992;8.820;2023-07-16T09:16:23;1.88;;;1.08;;
48042;SDS011;33988;47.992;8.820;2023-07-16T09:18:50;1.95;;;0.98;;
48042;SDS011;33988;47.992;8.820;2023-07-16T09:21:16;1.30;;;1.10;;
48042;SDS011;33988;47.992;8.820;2023-07-16T09:23:44;1.45;;;0.98;;
48042;SDS011;33988;47.992;8.820;2023-07-16T09:26:11;1.65;;;1.20;;
48042;SDS011;33988;47.992;8.820;2023-07-16T09:28:40;1.30;;;0.98;;
48042;SDS011;33988;47.992;8.820;2023-07-16T09:31:09;1.70;;;1.10;;
48042;SDS011;33988;47.992;8.820;2023-07-16T09:33:38;1.83;;;1.10;;
48042;SDS011;33988;47.992;8.820;2023-07-16T09:36:07;1.33;;;1.00;;
48042;SDS011;33988;47.992;8.820;2023-07-16T09:38:34;1.17;;;0.98;;
48042;SDS011;33988;47.992;8.820;2023-07-16T09:41:01;1.30;;;1.10;;
48042;SDS011;33988;47.992;8.820;2023-07-16T09:43:29;1.90;;;1.10;;
48042;SDS011;33988;47.992;8.820;2023-07-16T09:45:56;2.10;;;1.13;;
48042;SDS011;33988;47.992;8.820;2023-07-16T09:48:23;4.72;;;1.20;;
48042;SDS011;33988;47.992;8.820;2023-07-16T09:50:51;1.73;;;1.08;;
48042;SDS011;33988;47.992;8.820;2023-07-16T09:53:23;3.03;;;1.63;;
48042;SDS011;33988;47.992;8.820;2023-07-16T09:55:53;2.20;;;1.30;;
48042;SDS011;33988;47.992;8.820;2023-07-16T09:58:21;1.27;;;1.02;;
48042;SDS011;33988;47.992;8.820;2023-07-16T10:00:51;1.88;;;1.40;;
48042;SDS011;33988;47.992;8.820;2023-07-16T10:03:22;2.50;;;1.30;;
48042;SDS011;33988;47.992;8.820;2023-07-16T10:05:49;1.83;;;1.20;;
48042;SDS011;33988;47.992;8.820;2023-07-16T10:08:20;1.58;;;0.90;;
48042;SDS011;33988;47.992;8.820;2023-07-16T10:10:48;1.85;;;1.08;;
48042;SDS011;33988;47.992;8.820;2023-07-16T10:13:23;4.15;;;1.13;;
48042;SDS011;33988;47.992;8.820;2023-07-16T10:15:59;1.67;;;1.00;;
48042;SDS011;33988;47.992;8.820;2023-07-16T10:18:29;2.33;;;1.05;;
48042;SDS011;33988;47.992;8.820;2023-07-16T10:26:09;1.40;;;1.25;;
48042;SDS011;33988;47.992;8.820;2023-07-16T10:28:45;2.03;;;1.23;;
48042;SDS011;33988;47.992;8.820;2023-07-16T10:31:17;4.65;;;1.10;;
48042;SDS011;33988;47.992;8.820;2023-07-16T10:34:01;1.55;;;1.10;;
48042;SDS011;33988;47.992;8.820;2023-07-16T10:36:38;1.75;;;1.20;;
48042;SDS011;33988;47.992;8.820;2023-07-16T10:39:06;2.05;;;1.33;;
48042;SDS011;33988;47.992;8.820;2023-07-16T10:41:37;1.73;;;1.38;;
48042;SDS011;33988;47.992;8.820;2023-07-16T10:44:04;1.35;;;1.05;;
48042;SDS011;33988;47.992;8.820;2023-07-16T10:46:31;1.15;;;1.05;;
48042;SDS011;33988;47.992;8.820;2023-07-16T10:49:00;1.38;;;1.15;;
48042;SDS011;33988;47.992;8.820;2023-07-16T10:51:29;2.58;;;1.00;;
48042;SDS011;33988;47.992;8.820;2023-07-16T10:53:56;1.17;;;0.93;;
48042;SDS011;33988;47.992;8.820;2023-07-16T10:56:26;2.00;;;1.10;;
48042;SDS011;33988;47.992;8.820;2023-07-16T10:58:55;2.53;;;1.23;;
48042;SDS011;33988;47.992;8.820;2023-07-16T11:01:22;1.23;;;1.13;;
48042;SDS011;33988;47.992;8.820;2023-07-16T11:03:50;2.83;;;1.55;;
48042;SDS011;33988;47.992;8.820;2023-07-16T11:06:18;2.28;;;1.40;;
48042;SDS011;33988;47.992;8.820;2023-07-16T11:08:46;1.65;;;1.33;;
48042;SDS011;33988;47.992;8.820;2023-07-16T11:11:13;1.40;;;1.30;;
48042;SDS011;33988;47.992;8.820;2023-07-16T11:13:40;1.23;;;1.00;;
48042;SDS011;33988;47.992;8.820;2023-07-16T11:16:07;1.55;;;1.25;;
48042;SDS011;33988;47.992;8.820;2023-07-16T11:18:36;1.38;;;1.23;;
48042;SDS011;33988;47.992;8.820;2023-07-16T11:21:03;1.73;;;1.00;;
48042;SDS011;33988;47.992;8.820;2023-07-16T11:23:35;2.88;;;1.20;;
48042;SDS011;33988;47.992;8.820;2023-07-16T11:26:02;2.35;;;1.00;;
48042;SDS011;33988;47.992;8.820;2023-07-16T11:28:38;1.60;;;1.20;;
48042;SDS011;33988;47.992;8.820;2023-07-16T11:31:13;2.38;;;1.58;;
48042;SDS011;33988;47.992;8.820;2023-07-16T11:33:46;1.17;;;1.08;;
48042;SDS011;33988;47.992;8.820;2023-07-16T11:36:13;1.58;;;1.30;;
48042;SDS011;33988;47.992;8.820;2023-07-16T11:38:41;1.35;;;1.20;;
48042;SDS011;33988;47.992;8.820;2023-07-16T11:41:10;1.88;;;1.10;;
48042;SDS011;33988;47.992;8.820;2023-07-16T11:43:40;3.47;;;1.15;;
48042;SDS011;33988;47.992;8.820;2023-07-16T11:46:14;1.60;;;1.30;;
48042;SDS011;33988;47.992;8.820;2023-07-16T11:48:43;1.50;;;1.40;;
48042;SDS011;33988;47.992;8.820;2023-07-16T11:51:15;1.77;;;1.35;;
48042;SDS011;33988;47.992;8.820;2023-07-16T11:53:44;2.53;;;1.55;;
48042;SDS011;33988;47.992;8.820;2023-07-16T11:56:11;2.17;;;1.48;;
48042;SDS011;33988;47.992;8.820;2023-07-16T11:58:38;3.13;;;1.38;;
48042;SDS011;33988;47.992;8.820;2023-07-16T12:01:05;1.58;;;1.40;;
48042;SDS011;33988;47.992;8.820;2023-07-16T12:03:32;1.45;;;1.23;;
48042;SDS011;33988;47.992;8.820;2023-07-16T12:06:00;1.90;;;1.60;;
48042;SDS011;33988;47.992;8.820;2023-07-16T12:08:27;3.22;;;1.13;;
48042;SDS011;33988;47.992;8.820;2023-07-16T12:11:01;2.30;;;1.40;;
48042;SDS011;33988;47.992;8.820;2023-07-16T12:13:30;1.10;;;1.00;;
48042;SDS011;33988;47.992;8.820;2023-07-16T12:15:57;1.85;;;1.33;;
48042;SDS011;33988;47.992;8.820;2023-07-16T12:18:27;2.65;;;1.40;;
48042;SDS011;33988;47.992;8.820;2023-07-16T12:20:57;2.83;;;1.60;;
48042;SDS011;33988;47.992;8.820;2023-07-16T12:23:29;2.22;;;1.45;;
48042;SDS011;33988;47.992;8.820;2023-07-16T12:25:56;1.92;;;1.50;;
48042;SDS011;33988;47.992;8.820;2023-07-16T12:28:23;2.53;;;1.92;;
48042;SDS011;33988;47.992;8.820;2023-07-16T12:30:50;2.50;;;1.58;;
48042;SDS011;33988;47.992;8.820;2023-07-16T12:33:17;1.40;;;1.13;;
48042;SDS011;33988;47.992;8.820;2023-07-16T12:35:44;2.25;;;1.25;;
48042;SDS011;33988;47.992;8.820;2023-07-16T12:38:13;1.70;;;1.40;;
48042;SDS011;33988;47.992;8.820;2023-07-16T12:40:40;2.72;;;1.60;;
48042;SDS011;33988;47.992;8.820;2023-07-16T12:43:07;2.03;;;1.30;;
48042;SDS011;33988;47.992;8.820;2023-07-16T12:45:37;1.90;;;1.27;;
48042;SDS011;33988;47.992;8.820;2023-07-16T12:48:04;1.58;;;1.25;;
48042;SDS011;33988;47.992;8.820;2023-07-16T12:50:34;1.70;;;1.40;;
48042;SDS011;33988;47.992;8.820;2023-07-16T12:53:02;1.73;;;1.23;;
48042;SDS011;33988;47.992;8.820;2023-07-16T12:55:29;2.00;;;1.40;;
48042;SDS011;33988;47.992;8.820;2023-07-16T12:57:57;2.42;;;1.73;;
48042;SDS011;33988;47.992;8.820;2023-07-16T13:00:24;1.23;;;1.13;;
48042;SDS011;33988;47.992;8.820;2023-07-16T13:02:52;1.33;;;1.20;;
48042;SDS011;33988;47.992;8.820;2023-07-16T13:05:22;1.00;;;0.90;;
48042;SDS011;33988;47.992;8.820;2023-07-16T13:07:49;3.38;;;1.30;;
48042;SDS011;33988;47.992;8.820;2023-07-16T13:10:16;2.13;;;1.13;;
48042;SDS011;33988;47.992;8.820;2023-07-16T13:12:49;1.50;;;1.40;;
48042;SDS011;33988;47.992;8.820;2023-07-16T13:15:18;2.35;;;1.30;;
48042;SDS011;33988;47.992;8.820;2023-07-16T13:17:45;1.83;;;1.33;;
48042;SDS011;33988;47.992;8.820;2023-07-16T13:20:14;1.50;;;1.20;;
48042;SDS011;33988;47.992;8.820;2023-07-16T13:22:41;1.50;;;1.33;;
48042;SDS011;33988;47.992;8.820;2023-07-16T13:25:08;1.85;;;1.23;;
48042;SDS011;33988;47.992;8.820;2023-07-16T13:27:35;2.22;;;1.48;;
48042;SDS011;33988;47.992;8.820;2023-07-16T13:30:05;1.60;;;1.38;;
48042;SDS011;33988;47.992;8.820;2023-07-16T13:32:33;3.33;;;1.83;;
48042;SDS011;33988;47.992;8.820;2023-07-16T13:34:59;1.65;;;1.45;;
48042;SDS011;33988;47.992;8.820;2023-07-16T13:37:27;2.13;;;1.60;;
48042;SDS011;33988;47.992;8.820;2023-07-16T13:39:53;2.30;;;1.25;;
48042;SDS011;33988;47.992;8.820;2023-07-16T13:42:23;3.05;;;1.52;;
48042;SDS011;33988;47.992;8.820;2023-07-16T13:44:50;2.30;;;1.55;;
48042;SDS011;33988;47.992;8.820;2023-07-16T13:47:20;1.50;;;1.35;;
48042;SDS011;33988;47.992;8.820;2023-07-16T13:49:55;1.42;;;1.10;;
48042;SDS011;33988;47.992;8.820;2023-07-16T13:52:24;1.98;;;1.38;;
48042;SDS011;33988;47.992;8.820;2023-07-16T13:54:54;1.50;;;1.27;;
48042;SDS011;33988;47.992;8.820;2023-07-16T13:57:21;2.00;;;1.25;;
48042;SDS011;33988;47.992;8.820;2023-07-16T13:59:52;1.60;;;1.17;;
48042;SDS011;33988;47.992;8.820;2023-07-16T14:02:24;1.42;;;1.27;;
48042;SDS011;33988;47.992;8.820;2023-07-16T14:04:53;2.15;;;1.67;;
48042;SDS011;33988;47.992;8.820;2023-07-16T14:07:20;2.47;;;1.20;;
48042;SDS011;33988;47.992;8.820;2023-07-16T14:09:47;2.35;;;1.33;;
48042;SDS011;33988;47.992;8.820;2023-07-16T14:12:14;1.80;;;1.27;;
48042;SDS011;33988;47.992;8.820;2023-07-16T14:14:41;1.52;;;1.10;;
48042;SDS011;33988;47.992;8.820;2023-07-16T14:17:08;1.75;;;1.25;;
48042;SDS011;33988;47.992;8.820;2023-07-16T14:19:38;1.38;;;1.20;;
48042;SDS011;33988;47.992;8.820;2023-07-16T14:22:07;5.10;;;1.50;;
48042;SDS011;33988;47.992;8.820;2023-07-16T14:24:37;2.83;;;1.25;;
48042;SDS011;33988;47.992;8.820;2023-07-16T14:27:07;1.67;;;1.42;;
48042;SDS011;33988;47.992;8.820;2023-07-16T14:29:35;5.07;;;1.50;;
48042;SDS011;33988;47.992;8.820;2023-07-16T14:32:13;1.58;;;1.23;;
48042;SDS011;33988;47.992;8.820;2023-07-16T14:34:39;1.90;;;1.42;;
48042;SDS011;33988;47.992;8.820;2023-07-16T14:37:07;1.83;;;1.52;;
48042;SDS011;33988;47.992;8.820;2023-07-16T14:39:34;1.55;;;1.00;;
48042;SDS011;33988;47.992;8.820;2023-07-16T14:42:01;1.48;;;1.38;;
48042;SDS011;33988;47.992;8.820;2023-07-16T14:44:30;2.15;;;1.63;;
48042;SDS011;33988;47.992;8.820;2023-07-16T14:46:57;2.22;;;1.20;;
48042;SDS011;33988;47.992;8.820;2023-07-16T14:49:26;2.05;;;1.45;;
48042;SDS011;33988;47.992;8.820;2023-07-16T14:51:53;1.40;;;1.27;;
48042;SDS011;33988;47.992;8.820;2023-07-16T14:54:22;1.88;;;1.50;;
48042;SDS011;33988;47.992;8.820;2023-07-16T14:56:51;3.67;;;1.38;;
48042;SDS011;33988;47.992;8.820;2023-07-16T14:59:19;1.73;;;1.50;;
48042;SDS011;33988;47.992;8.820;2023-07-16T15:01:45;4.72;;;1.40;;
48042;SDS011;33988;47.992;8.820;2023-07-16T15:04:16;1.70;;;1.45;;
48042;SDS011;33988;47.992;8.820;2023-07-16T15:06:43;4.45;;;1.95;;
48042;SDS011;33988;47.992;8.820;2023-07-16T15:09:12;2.40;;;1.48;;
48042;SDS011;33988;47.992;8.820;2023-07-16T15:11:40;3.53;;;1.70;;
48042;SDS011;33988;47.992;8.820;2023-07-16T15:14:11;3.20;;;1.67;;
48042;SDS011;33988;47.992;8.820;2023-07-16T15:16:41;1.77;;;1.50;;